This is the latest recevied weather packets stored in our database for station/object N3NDE. If no packets are shown the sender has not sent any weather packets the latest 1 day(s).
| Time | Temp. | Humidity | Pressure | Rain* | Wind** | Luminosity | Snow |
|---|---|---|---|---|---|---|---|
| 1778033607 | 8.33° C | 78% | 1011.7 hPa | 0 mm | 0 m/s | 10 W/m² | - |
| 1778033303 | 8.89° C | 75% | 1011.6 hPa | 0 mm | 0 m/s | 14 W/m² | - |
| 1778033001 | 10° C | 72% | 1011.7 hPa | 0 mm | 0.45 m/s, 54° | 19 W/m² | - |
| 1778032699 | 10.56° C | 70% | 1011.8 hPa | 0 mm | 0.45 m/s, 48° | 27 W/m² | - |
| 1778032396 | 10.56° C | 68% | 1011.3 hPa | 0 mm | 0 m/s | 33 W/m² | - |
| 1778032092 | 10.56° C | 67% | 1011.7 hPa | 0 mm | 0 m/s | 41 W/m² | - |
| 1778031789 | 10.56° C | 66% | 1011.7 hPa | 0 mm | 0 m/s | 50 W/m² | - |
| 1778031486 | 10.56° C | 66% | 1011.8 hPa | 0 mm | 0.45 m/s, 52° | 51 W/m² | - |
| 1778031184 | 10.56° C | 68% | 1011.8 hPa | 0 mm | 0 m/s | 62 W/m² | - |
| 1778030880 | 10° C | 71% | 1011.6 hPa | 0 mm | 0.45 m/s, 64° | 68 W/m² | - |
| 1778030577 | 10° C | 70% | 1011.7 hPa | 0 mm | 0.45 m/s, 51° | 79 W/m² | - |
| 1778030274 | 10° C | 70% | 1011.7 hPa | 0 mm | 0.89 m/s, 28° | 83 W/m² | - |
| 1778029970 | 9.44° C | 74% | 1011.7 hPa | 0 mm | 0 m/s | 77 W/m² | - |
| 1778029669 | 8.89° C | 76% | 1011.7 hPa | 0 mm | 0 m/s | 145 W/m² | - |
| 1778029366 | 9.44° C | 72% | 1011.8 hPa | 0 mm | 0.45 m/s, 54° | 52 W/m² | - |
| 1778029063 | 10.56° C | 68% | 1011.8 hPa | 0 mm | 0 m/s | 96 W/m² | - |
| 1778028760 | 11.11° C | 67% | 1011.9 hPa | 0 mm | 0.89 m/s, 38° | 188 W/m² | - |
| 1778028455 | 11.11° C | 64% | 1011.8 hPa | 0 mm | 0.45 m/s, 47° | 219 W/m² | - |
| 1778028153 | 11.11° C | 64% | 1011.9 hPa | 0 mm | 0 m/s | 239 W/m² | - |
| 1778027849 | 11.11° C | 64% | 1012.1 hPa | 0 mm | 0 m/s | 254 W/m² | - |
| 1778027546 | 10.56° C | 66% | 1012.1 hPa | 0 mm | 0.45 m/s, 51° | 275 W/m² | - |
| 1778027241 | 10° C | 71% | 1011.9 hPa | 0 mm | 0 m/s | 294 W/m² | - |
| 1778026938 | 9.44° C | 71% | 1012.1 hPa | 0 mm | 0 m/s | 96 W/m² | - |
| 1778026634 | 9.44° C | 72% | 1012.2 hPa | 0 mm | 0.89 m/s, 109° | 211 W/m² | - |
| 1778026332 | 8.89° C | 71% | 1012.3 hPa | 0 mm | 0 m/s | 141 W/m² | - |
* Rain latest hour (hover to see other rain measurements)
** Current wind speed in m/s (hover to see current wind gust speed)